Time;durP1;ratioP1;P1;durP2;ratioP2;P2;SDS_P1;SDS_P2;PMS_P1;PMS_P2;Temp;Humidity;BMP_temperature;BMP_pressure;BME280_temperature;BME280_humidity;BME280_pressure;Samples;Min_cycle;Max_cycle;Signal;HPM_P1;HPM_P2
2021/05/11 00:02:07;;;;;;;4.22;1.60;;;20.60;92.40;;;;;;5097202;28;20101;-77
2021/05/11 00:04:36;;;;;;;4.50;1.73;;;20.70;92.30;;;;;;5082116;28;20134;-77
2021/05/11 00:07:04;;;;;;;3.05;1.67;;;20.80;91.70;;;;;;5095938;28;20048;-77
2021/05/11 00:09:31;;;;;;;5.28;1.52;;;20.70;91.60;;;;;;5118279;27;20080;-78
2021/05/11 00:11:59;;;;;;;4.32;1.40;;;20.80;91.20;;;;;;5087858;28;20055;-77
2021/05/11 00:14:26;;;;;;;4.82;1.60;;;20.80;90.80;;;;;;5101801;28;20047;-78
2021/05/11 00:16:55;;;;;;;2.58;1.42;;;20.80;90.60;;;;;;5102857;27;20039;-77
2021/05/11 00:19:26;;;;;;;2.65;1.30;;;20.70;90.60;;;;;;5098799;28;20044;-77
2021/05/11 00:21:56;;;;;;;2.15;1.30;;;20.70;90.60;;;;;;5084526;27;20047;-77
2021/05/11 00:24:24;;;;;;;2.40;1.55;;;20.70;90.20;;;;;;5101875;28;20118;-78
2021/05/11 00:27:17;;;;;;;4.93;1.45;;;20.50;91.10;;;;;;5100912;27;20031;-78
2021/05/11 00:29:45;;;;;;;2.80;1.55;;;20.30;92.30;;;;;;5101378;27;20421;-77
2021/05/11 00:32:13;;;;;;;4.25;1.52;;;20.30;92.30;;;;;;5084668;27;20489;-78
2021/05/11 00:34:48;;;;;;;2.05;1.10;;;20.20;92.20;;;;;;5098419;27;20046;-78
2021/05/11 00:37:52;;;;;;;2.63;0.90;;;20.20;92.00;;;;;;5106433;27;20552;-79
2021/05/11 00:40:20;;;;;;;2.88;1.05;;;20.20;91.90;;;;;;5098309;28;20611;-79
2021/05/11 00:43:09;;;;;;;4.88;1.88;;;20.20;91.60;;;;;;5100116;28;20074;-78
2021/05/11 00:45:37;;;;;;;2.58;1.00;;;20.10;92.20;;;;;;5082267;27;20054;-78
2021/05/11 00:48:06;;;;;;;1.55;0.90;;;19.90;92.30;;;;;;5097135;28;20271;-78
2021/05/11 00:50:35;;;;;;;2.25;0.90;;;20.00;92.50;;;;;;5098277;27;20046;-78
2021/05/11 00:53:20;;;;;;;2.15;1.20;;;20.10;91.80;;;;;;5083052;28;20056;-78
2021/05/11 00:55:48;;;;;;;2.17;1.00;;;20.20;91.30;;;;;;5098827;27;20053;-78
2021/05/11 00:59:15;;;;;;;3.72;0.88;;;20.10;91.40;;;;;;5104385;27;20043;-78
2021/05/11 01:01:43;;;;;;;2.90;0.98;;;20.20;91.10;;;;;;5079846;27;20039;-79
2021/05/11 01:04:12;;;;;;;3.30;1.05;;;20.20;90.90;;;;;;5099518;28;20524;-78
2021/05/11 01:06:42;;;;;;;3.97;1.13;;;20.20;90.70;;;;;;5097907;28;20047;-79
2021/05/11 01:09:13;;;;;;;1.45;0.80;;;20.20;90.60;;;;;;5097615;28;20040;-78
2021/05/11 01:11:45;;;;;;;3.53;0.90;;;20.20;90.60;;;;;;5098960;28;20083;-78
2021/05/11 01:14:15;;;;;;;3.80;0.90;;;20.20;90.70;;;;;;5103235;27;20516;-79
2021/05/11 01:16:48;;;;;;;3.75;1.17;;;20.20;90.60;;;;;;5106433;27;20037;-78
2021/05/11 01:25:16;;;;;;;2.13;0.90;;;19.60;94.30;;;;;;5101052;27;20043;-79
2021/05/11 01:47:47;;;;;;;4.40;1.17;;;19.60;92.40;;;;;;5096421;28;20508;-79
2021/05/11 01:55:58;;;;;;;3.85;0.80;;;19.30;92.40;;;;;;5100301;27;20656;-79
2021/05/11 02:23:38;;;;;;;1.67;1.00;;;19.20;91.90;;;;;;5100878;28;20043;-79
2021/05/11 02:26:07;;;;;;;3.15;1.10;;;19.30;92.10;;;;;;5094826;28;20043;-79
2021/05/11 02:28:36;;;;;;;0.90;0.70;;;19.30;91.40;;;;;;5083199;28;20043;-78
2021/05/11 02:31:11;;;;;;;2.47;1.02;;;19.20;92.10;;;;;;5097184;28;20120;-80
2021/05/11 02:33:39;;;;;;;2.00;0.90;;;19.30;91.70;;;;;;5098767;28;20361;-80
2021/05/11 02:36:08;;;;;;;1.38;0.77;;;19.20;92.00;;;;;;5098353;28;20357;-79
2021/05/11 02:38:36;;;;;;;1.95;1.10;;;19.30;91.90;;;;;;5103779;27;20122;-79
2021/05/11 02:41:06;;;;;;;3.15;1.15;;;19.30;92.10;;;;;;5098636;27;20534;-78
2021/05/11 02:43:38;;;;;;;2.72;0.80;;;19.20;92.80;;;;;;5100219;28;20071;-78
2021/05/11 02:46:07;;;;;;;1.83;1.00;;;19.20;93.00;;;;;;5099677;27;20047;-78
2021/05/11 02:48:37;;;;;;;4.47;1.10;;;19.10;93.30;;;;;;5103062;27;20448;-79
2021/05/11 02:51:06;;;;;;;3.25;0.93;;;19.20;92.60;;;;;;5097185;27;20043;-79
2021/05/11 02:53:36;;;;;;;2.05;1.02;;;19.10;93.30;;;;;;5080783;28;20055;-79
2021/05/11 02:56:05;;;;;;;4.07;1.13;;;19.10;92.90;;;;;;5083443;27;20047;-79
2021/05/11 02:58:36;;;;;;;3.50;1.15;;;18.90;93.20;;;;;;5100467;27;20076;-80
2021/05/11 03:01:05;;;;;;;3.55;1.08;;;18.90;93.20;;;;;;5096813;28;20130;-79
2021/05/11 03:03:34;;;;;;;4.55;1.02;;;18.90;93.60;;;;;;5102815;27;20108;-80
2021/05/11 03:06:04;;;;;;;2.45;1.20;;;18.90;93.40;;;;;;5083765;28;20043;-79
2021/05/11 03:08:35;;;;;;;3.05;1.10;;;18.80;94.40;;;;;;5096601;28;20050;-80
2021/05/11 03:11:11;;;;;;;5.28;1.45;;;18.80;94.80;;;;;;5081785;28;20067;-78
2021/05/11 03:13:52;;;;;;;4.07;1.08;;;18.90;94.40;;;;;;5079112;28;20055;-78
2021/05/11 03:16:26;;;;;;;3.25;1.10;;;19.00;93.90;;;;;;5099387;28;20088;-79
2021/05/11 03:18:55;;;;;;;2.50;1.08;;;19.10;93.20;;;;;;5094329;28;20028;-79
2021/05/11 03:21:24;;;;;;;4.03;1.27;;;19.00;93.10;;;;;;5101604;28;20047;-78
2021/05/11 03:23:52;;;;;;;2.85;1.35;;;19.00;93.10;;;;;;5098330;28;20032;-78
2021/05/11 03:26:21;;;;;;;5.07;1.45;;;18.90;93.00;;;;;;5098622;28;20572;-78
2021/05/11 03:28:51;;;;;;;1.85;1.02;;;19.00;93.10;;;;;;5095523;28;20468;-78
2021/05/11 03:31:18;;;;;;;3.13;1.10;;;19.00;93.10;;;;;;5082938;28;20051;-78
2021/05/11 03:33:47;;;;;;;4.07;1.40;;;19.10;92.90;;;;;;5096634;28;20123;-78
2021/05/11 03:36:16;;;;;;;3.45;1.60;;;19.00;93.30;;;;;;5099937;28;20058;-78
2021/05/11 03:38:49;;;;;;;4.22;1.27;;;19.00;94.00;;;;;;5096136;28;20035;-78
2021/05/11 03:41:22;;;;;;;2.35;1.20;;;19.00;94.00;;;;;;5097886;28;20040;-78
2021/05/11 03:44:02;;;;;;;4.82;1.40;;;19.00;94.40;;;;;;5101225;28;20081;-78
2021/05/11 03:46:32;;;;;;;2.92;1.02;;;18.80;94.60;;;;;;5105748;27;20169;-79
2021/05/11 03:49:03;;;;;;;2.03;1.20;;;18.50;94.80;;;;;;5105028;27;20563;-78
2021/05/11 03:51:33;;;;;;;3.78;1.27;;;18.40;96.40;;;;;;5099238;28;20048;-79
2021/05/11 03:54:04;;;;;;;3.15;1.20;;;18.70;95.70;;;;;;5085484;28;20517;-79
2021/05/11 03:56:40;;;;;;;2.25;0.90;;;18.80;95.70;;;;;;5085161;27;20043;-79
2021/05/11 03:59:23;;;;;;;2.20;1.40;;;18.60;96.00;;;;;;5079770;28;20063;-80
2021/05/11 04:02:05;;;;;;;3.17;1.20;;;18.70;96.30;;;;;;5098931;28;20048;-80
2021/05/11 04:04:39;;;;;;;2.03;1.10;;;18.90;95.80;;;;;;5102109;28;20032;-80
2021/05/11 04:07:10;;;;;;;2.58;1.33;;;18.80;96.10;;;;;;5101644;27;20031;-80
2021/05/11 04:09:53;;;;;;;1.75;1.30;;;18.90;96.20;;;;;;5103767;27;20127;-80
2021/05/11 04:18:02;;;;;;;3.97;1.20;;;18.60;96.50;;;;;;5101439;28;20089;-80
2021/05/11 04:20:32;;;;;;;3.80;1.00;;;18.40;96.40;;;;;;5099831;27;20174;-79
2021/05/11 04:23:02;;;;;;;6.80;1.25;;;18.40;96.20;;;;;;5100737;27;20066;-79
2021/05/11 04:25:32;;;;;;;4.30;1.13;;;18.20;96.00;;;;;;5099214;28;20500;-79
2021/05/11 04:28:01;;;;;;;3.75;1.58;;;18.00;96.30;;;;;;5099252;27;20062;-79
2021/05/11 04:30:31;;;;;;;3.08;1.30;;;18.00;96.50;;;;;;5099339;28;20097;-79
2021/05/11 04:32:59;;;;;;;5.28;1.00;;;18.20;95.90;;;;;;5102705;28;20058;-78
2021/05/11 04:35:27;;;;;;;3.38;1.25;;;18.30;95.60;;;;;;5102716;27;20109;-78
2021/05/11 04:37:56;;;;;;;3.35;1.35;;;18.30;95.60;;;;;;5095938;28;20098;-78
2021/05/11 04:40:25;;;;;;;3.55;1.30;;;18.20;95.50;;;;;;5099816;28;20409;-78
2021/05/11 04:42:53;;;;;;;5.28;1.48;;;18.10;95.90;;;;;;5099646;28;20040;-79
2021/05/11 04:45:25;;;;;;;5.38;1.30;;;18.10;96.20;;;;;;5095988;28;20756;-78
2021/05/11 04:47:55;;;;;;;3.15;1.10;;;18.30;95.80;;;;;;5101017;27;20043;-78
2021/05/11 04:50:25;;;;;;;5.47;1.35;;;18.30;96.50;;;;;;5099199;27;20036;-78
2021/05/11 04:52:53;;;;;;;3.00;1.33;;;18.30;96.70;;;;;;5099486;28;20133;-78
2021/05/11 04:55:21;;;;;;;5.38;1.50;;;18.30;96.70;;;;;;5098479;27;20382;-78
2021/05/11 04:57:50;;;;;;;5.93;1.73;;;18.20;96.70;;;;;;5086825;28;20036;-78
2021/05/11 05:00:19;;;;;;;3.75;1.45;;;18.10;96.70;;;;;;5100603;27;20166;-77
2021/05/11 05:02:49;;;;;;;6.15;1.67;;;18.00;96.70;;;;;;5100696;28;20043;-77
2021/05/11 05:05:19;;;;;;;2.58;1.33;;;18.10;96.70;;;;;;5098513;27;20071;-77
2021/05/11 05:07:48;;;;;;;4.60;1.70;;;18.40;96.70;;;;;;5102219;27;20409;-77
2021/05/11 05:10:17;;;;;;;3.90;1.80;;;18.40;96.70;;;;;;5102479;28;20392;-78
2021/05/11 05:12:45;;;;;;;6.35;1.70;;;18.20;96.70;;;;;;5097231;27;20059;-78
2021/05/11 05:15:15;;;;;;;3.85;1.73;;;18.00;96.70;;;;;;5100119;27;20524;-78
2021/05/11 05:17:44;;;;;;;7.85;2.47;;;17.90;96.70;;;;;;5102258;27;20052;-78
2021/05/11 05:20:13;;;;;;;4.32;2.38;;;18.20;96.70;;;;;;5108520;27;20057;-78
2021/05/11 05:22:43;;;;;;;4.00;2.28;;;18.00;96.70;;;;;;5102212;27;20036;-78
2021/05/11 05:25:19;;;;;;;4.57;2.60;;;17.90;96.70;;;;;;5100356;27;20035;-78
2021/05/11 05:30:24;;;;;;;5.60;2.78;;;18.10;96.70;;;;;;5102218;27;20047;-78
2021/05/11 05:33:01;;;;;;;4.13;2.55;;;18.00;96.70;;;;;;5098244;27;20067;-78
2021/05/11 05:35:29;;;;;;;;;;;18.00;96.70;;;;;;5104499;27;20043;-78
2021/05/11 05:37:59;;;;;;;4.50;2.58;;;18.20;96.70;;;;;;5099413;27;19953;-78
2021/05/11 05:40:28;;;;;;;3.28;2.20;;;18.10;96.70;;;;;;5084031;27;20059;-78
2021/05/11 05:42:57;;;;;;;4.38;2.38;;;17.80;96.70;;;;;;5096947;28;20090;-78
2021/05/11 05:45:25;;;;;;;7.15;2.67;;;17.80;96.70;;;;;;5081481;28;20051;-78
2021/05/11 05:47:54;;;;;;;4.63;2.38;;;17.60;96.70;;;;;;5098538;27;20296;-78
2021/05/11 05:50:25;;;;;;;4.70;2.33;;;17.60;96.70;;;;;;5098154;27;20538;-78
2021/05/11 05:53:01;;;;;;;4.15;2.30;;;17.60;96.70;;;;;;5094346;27;20300;-78
2021/05/11 05:55:30;;;;;;;4.60;2.23;;;17.70;96.70;;;;;;5101197;28;20039;-80
2021/05/11 05:57:59;;;;;;;5.40;2.83;;;17.60;96.70;;;;;;5094201;28;20040;-80
2021/05/11 06:00:28;;;;;;;5.70;2.58;;;17.60;96.70;;;;;;5099858;27;20047;-80
2021/05/11 06:03:05;;;;;;;4.68;2.40;;;17.70;96.70;;;;;;5098476;28;20058;-80
2021/05/11 06:05:34;;;;;;;5.68;2.85;;;17.80;96.70;;;;;;5099263;28;20483;-80
2021/05/11 06:08:04;;;;;;;8.93;3.05;;;17.70;96.70;;;;;;5095081;28;20035;-81
2021/05/11 06:10:33;;;;;;;6.30;2.90;;;17.80;96.70;;;;;;5102769;27;20051;-80
2021/05/11 06:13:10;;;;;;;6.28;2.78;;;17.70;96.70;;;;;;5081943;28;20048;-80
2021/05/11 06:18:27;;;;;;;3.35;2.22;;;18.10;96.70;;;;;;5104446;27;20063;-81
2021/05/11 06:20:56;;;;;;;5.22;2.85;;;18.10;96.70;;;;;;5098289;27;20036;-79
2021/05/11 06:23:26;;;;;;;6.47;2.55;;;17.90;96.70;;;;;;5097825;28;20608;-77
2021/05/11 06:25:54;;;;;;;7.22;2.78;;;17.60;96.70;;;;;;5099492;27;20432;-78
2021/05/11 06:28:24;;;;;;;5.20;3.03;;;17.70;96.70;;;;;;5097279;28;20035;-78
2021/05/11 06:30:53;;;;;;;3.22;2.50;;;17.70;96.70;;;;;;5095415;28;20062;-78
2021/05/11 06:33:21;;;;;;;5.10;2.90;;;17.70;96.70;;;;;;5103747;27;20400;-78
2021/05/11 06:35:52;;;;;;;5.47;2.75;;;17.80;96.70;;;;;;5103113;27;20109;-78
2021/05/11 06:38:21;;;;;;;7.78;3.40;;;17.80;96.70;;;;;;5099975;28;20089;-78
2021/05/11 06:40:52;;;;;;;6.35;3.25;;;17.80;96.70;;;;;;5096868;28;20055;-78
2021/05/11 06:43:28;;;;;;;5.53;3.63;;;17.70;96.70;;;;;;5098412;28;20054;-78
2021/05/11 06:48:49;;;;;;;8.82;3.50;;;17.60;96.70;;;;;;5100723;27;20059;-78
2021/05/11 06:53:56;;;;;;;4.50;2.83;;;17.50;96.70;;;;;;5094856;27;20056;-78
2021/05/11 06:56:26;;;;;;;12.82;4.05;;;17.50;96.70;;;;;;5094912;28;20036;-79
2021/05/11 06:58:55;;;;;;;4.90;2.90;;;17.70;96.70;;;;;;5098488;27;20050;-78
2021/05/11 07:01:23;;;;;;;3.88;2.90;;;17.70;96.70;;;;;;5102715;27;20526;-78
2021/05/11 07:03:52;;;;;;;5.13;3.28;;;17.90;96.70;;;;;;5094759;28;20043;-77
2021/05/11 07:06:21;;;;;;;4.88;2.97;;;17.80;96.70;;;;;;5106477;27;20032;-78
2021/05/11 07:08:54;;;;;;;6.95;3.67;;;17.70;96.70;;;;;;5098527;27;20048;-78
2021/05/11 07:13:05;;;;;;;5.45;3.13;;;17.70;96.70;;;;;;5103567;28;20035;-79
2021/05/11 07:14:14;;;;;;;5.53;3.05;;;17.50;96.70;;;;;;5105544;28;20081;-77
2021/05/11 07:16:43;;;;;;;5.60;3.28;;;17.40;96.70;;;;;;5101659;28;20032;-77
2021/05/11 07:19:12;;;;;;;4.88;3.17;;;17.00;96.70;;;;;;5096474;28;20404;-78
2021/05/11 07:21:41;;;;;;;6.80;2.92;;;16.80;96.70;;;;;;5099595;28;20543;-78
2021/05/11 07:24:10;;;;;;;4.28;2.50;;;16.60;96.70;;;;;;5096578;28;20036;-78
2021/05/11 07:32:04;;;;;;;5.03;2.17;;;17.20;96.70;;;;;;5035528;28;20176;-78
2021/05/11 07:34:33;;;;;;;2.97;1.90;;;17.40;96.70;;;;;;5036929;28;20223;-78
2021/05/11 07:37:02;;;;;;;3.63;2.08;;;17.50;96.70;;;;;;5011260;28;20054;-78
2021/05/11 07:39:31;;;;;;;3.13;2.15;;;17.50;96.70;;;;;;5038448;28;20037;-77
2021/05/11 07:42:00;;;;;;;4.32;2.35;;;17.60;96.70;;;;;;5037015;28;20059;-78
2021/05/11 07:44:30;;;;;;;4.38;2.08;;;17.60;96.70;;;;;;5020292;28;20044;-77
2021/05/11 07:49:58;;;;;;;4.50;1.90;;;17.60;96.70;;;;;;5035801;28;20045;-78
2021/05/11 07:56:39;;;;;;;3.72;2.03;;;17.60;96.70;;;;;;5032782;28;20135;-77
2021/05/11 08:16:43;;;;;;;5.20;2.40;;;18.50;96.70;;;;;;5113083;27;20507;-78
2021/05/11 08:27:46;;;;;;;3.25;2.10;;;18.60;96.70;;;;;;5097582;28;20142;-78
2021/05/11 08:30:16;;;;;;;6.68;3.25;;;18.60;96.70;;;;;;5095401;28;20058;-78
2021/05/11 08:32:46;;;;;;;4.78;3.00;;;18.60;96.70;;;;;;5100474;27;20045;-78
2021/05/11 08:35:17;;;;;;;4.65;2.50;;;18.70;96.70;;;;;;5100421;28;20139;-78
2021/05/11 08:37:45;;;;;;;7.50;3.03;;;18.70;96.70;;;;;;5102492;27;20488;-78
2021/05/11 08:40:15;;;;;;;4.28;2.58;;;18.80;96.70;;;;;;5101403;27;20040;-78
2021/05/11 08:42:44;;;;;;;4.03;2.22;;;18.80;96.70;;;;;;5084303;27;20052;-78
2021/05/11 08:45:15;;;;;;;4.97;2.30;;;18.70;96.70;;;;;;5098395;27;20583;-77
2021/05/11 08:47:52;;;;;;;4.53;2.33;;;18.70;96.70;;;;;;5099992;28;20708;-78
2021/05/11 08:50:35;;;;;;;4.35;2.20;;;18.80;96.70;;;;;;5104545;27;20036;-77
2021/05/11 08:53:23;;;;;;;3.80;2.38;;;18.90;96.70;;;;;;5100465;27;20073;-77
2021/05/11 09:15:58;;;;;;;3.17;1.85;;;19.40;96.70;;;;;;5100842;28;20543;-77
2021/05/11 09:26:37;;;;;;;7.05;2.53;;;19.30;96.70;;;;;;5102273;28;20542;-78
2021/05/11 09:29:25;;;;;;;5.05;2.08;;;19.20;96.70;;;;;;5100176;28;20077;-78
2021/05/11 09:32:06;;;;;;;6.25;2.85;;;19.10;96.70;;;;;;5102202;27;20044;-77
2021/05/11 09:34:46;;;;;;;5.95;2.47;;;19.20;96.70;;;;;;5086278;27;20135;-77
2021/05/11 10:48:18;;;;;;;8.63;3.90;;;19.00;96.70;;;;;;5101699;28;20039;-77
2021/05/11 10:50:48;;;;;;;;;;;19.00;96.70;;;;;;5093134;27;20876;-77
2021/05/11 10:53:53;;;;;;;6.63;3.30;;;18.90;96.70;;;;;;5103915;27;19927;-76
2021/05/11 10:56:57;;;;;;;4.97;3.55;;;19.00;96.70;;;;;;5100915;27;20052;-76
2021/05/11 11:01:59;;;;;;;4.70;3.22;;;19.00;96.70;;;;;;5097623;28;20544;-77
2021/05/11 11:04:32;;;;;;;8.32;3.63;;;19.00;96.70;;;;;;5098480;27;20039;-77
2021/05/11 11:07:05;;;;;;;5.78;3.45;;;19.00;96.70;;;;;;5100058;28;20565;-77
2021/05/11 11:09:35;;;;;;;6.55;3.10;;;18.90;96.70;;;;;;5101090;28;20039;-76
2021/05/11 11:12:05;;;;;;;4.70;3.33;;;18.90;96.70;;;;;;5095955;28;20040;-77
2021/05/11 11:14:39;;;;;;;4.72;3.22;;;19.00;96.70;;;;;;5095931;28;20051;-77
2021/05/11 11:17:10;;;;;;;5.15;2.78;;;18.90;96.70;;;;;;5099387;28;20044;-77
2021/05/11 11:19:39;;;;;;;5.97;3.22;;;18.90;96.70;;;;;;5097966;28;20044;-77
2021/05/11 11:24:58;;;;;;;6.32;2.92;;;18.90;96.70;;;;;;5101341;28;20042;-76
2021/05/11 11:27:27;;;;;;;5.93;3.05;;;18.90;96.70;;;;;;5101608;28;20040;-76
2021/05/11 11:30:02;;;;;;;5.00;3.00;;;18.90;96.70;;;;;;5096727;28;20829;-76
2021/05/11 11:32:31;;;;;;;5.80;3.42;;;18.90;96.70;;;;;;5096691;28;20075;-76
2021/05/11 11:35:00;;;;;;;4.88;2.80;;;18.90;96.70;;;;;;5098952;28;20035;-76
2021/05/11 11:37:30;;;;;;;5.85;3.25;;;18.90;96.70;;;;;;5105412;28;20509;-77
2021/05/11 11:39:59;;;;;;;5.35;3.50;;;19.00;96.70;;;;;;5094044;28;20036;-76
2021/05/11 11:42:30;;;;;;;7.30;3.53;;;18.90;96.70;;;;;;5099390;28;20047;-76
2021/05/11 11:45:03;;;;;;;6.35;3.13;;;19.00;96.70;;;;;;5100204;28;20064;-76
2021/05/11 11:47:41;;;;;;;7.40;3.53;;;19.10;96.70;;;;;;5080547;28;20036;-76
2021/05/11 11:50:13;;;;;;;6.75;3.17;;;19.00;96.70;;;;;;5098435;28;20109;-76
2021/05/11 11:57:53;;;;;;;5.85;2.70;;;18.50;96.70;;;;;;5093230;28;20039;-76
2021/05/11 12:00:23;;;;;;;6.78;2.58;;;18.30;96.70;;;;;;5074017;28;20043;-76
2021/05/11 12:03:00;;;;;;;3.15;0.77;;;17.90;96.70;;;;;;5097977;28;20456;-77
2021/05/11 12:05:30;;;;;;;4.82;1.23;;;17.40;96.70;;;;;;5101829;28;20039;-77
2021/05/11 12:08:06;;;;;;;1.88;0.40;;;16.90;96.70;;;;;;5100399;27;20489;-78
2021/05/11 12:10:38;;;;;;;2.20;0.73;;;16.80;96.70;;;;;;5098838;28;20039;-77
2021/05/11 12:13:08;;;;;;;2.28;0.60;;;16.70;96.70;;;;;;5101072;27;20094;-77
2021/05/11 12:15:37;;;;;;;1.23;0.55;;;16.70;96.70;;;;;;5097147;28;20065;-77
2021/05/11 12:18:16;;;;;;;2.53;0.45;;;16.50;96.70;;;;;;5100367;27;20154;-76
2021/05/11 12:21:02;;;;;;;1.30;0.40;;;16.50;96.70;;;;;;5099846;28;20459;-77
2021/05/11 12:23:30;;;;;;;1.98;0.32;;;16.60;96.70;;;;;;5103161;28;20544;-77
2021/05/11 12:26:01;;;;;;;0.98;0.43;;;16.50;96.70;;;;;;5095925;28;20131;-77
2021/05/11 12:28:34;;;;;;;1.55;0.40;;;16.40;96.70;;;;;;5099971;27;20048;-76
2021/05/11 12:31:04;;;;;;;2.13;0.65;;;16.40;96.70;;;;;;5098478;28;20036;-76
2021/05/11 12:33:35;;;;;;;2.97;0.50;;;16.50;96.70;;;;;;5098300;28;20039;-76
2021/05/11 12:36:19;;;;;;;2.92;0.32;;;16.30;96.70;;;;;;5104552;27;20035;-76
2021/05/11 12:38:49;;;;;;;2.83;0.38;;;16.30;96.70;;;;;;5104717;27;20051;-76
2021/05/11 12:41:31;;;;;;;1.27;0.70;;;16.30;96.70;;;;;;5101840;27;20296;-76
2021/05/11 12:44:00;;;;;;;1.15;0.22;;;16.30;96.70;;;;;;5081503;27;20059;-76
2021/05/11 12:46:30;;;;;;;2.83;0.20;;;16.30;96.70;;;;;;5093715;27;20111;-76
2021/05/11 12:49:01;;;;;;;4.07;0.85;;;16.20;96.70;;;;;;5097857;28;20048;-76
2021/05/11 12:51:40;;;;;;;1.67;0.10;;;16.30;96.70;;;;;;5103028;27;20043;-76
2021/05/11 12:54:22;;;;;;;0.95;0.35;;;16.30;96.70;;;;;;5105423;27;20458;-76
2021/05/11 13:26:28;;;;;;;1.27;0.40;;;16.70;96.70;;;;;;5105861;27;20648;-76
2021/05/11 13:29:02;;;;;;;3.55;0.70;;;16.60;96.70;;;;;;5098599;27;20132;-76
2021/05/11 13:34:11;;;;;;;2.55;0.70;;;16.50;96.70;;;;;;5102138;27;20134;-76
2021/05/11 13:36:42;;;;;;;0.80;0.20;;;16.40;96.70;;;;;;5103571;27;20040;-76
2021/05/11 13:39:11;;;;;;;0.77;0.20;;;16.40;96.70;;;;;;5097296;28;20492;-76
2021/05/11 13:41:41;;;;;;;1.05;0.30;;;16.30;96.70;;;;;;5100264;28;20031;-76
2021/05/11 13:44:09;;;;;;;1.90;0.63;;;16.40;96.70;;;;;;5093895;28;20400;-76
2021/05/11 13:46:37;;;;;;;2.50;0.63;;;16.40;96.70;;;;;;5102942;27;20532;-76
2021/05/11 13:49:05;;;;;;;2.08;0.35;;;16.30;96.70;;;;;;5100071;27;20032;-76
2021/05/11 13:51:33;;;;;;;2.72;0.43;;;16.20;96.70;;;;;;5101145;27;20554;-76
2021/05/11 13:54:05;;;;;;;4.13;0.40;;;16.20;96.70;;;;;;5102859;27;20500;-76
2021/05/11 14:04:18;;;;;;;1.75;0.35;;;16.40;96.70;;;;;;5100108;28;20035;-76
2021/05/11 14:06:48;;;;;;;1.55;0.40;;;16.40;96.70;;;;;;5102824;27;20587;-75
2021/05/11 14:09:17;;;;;;;1.63;0.50;;;16.40;96.70;;;;;;5100470;27;20460;-76
2021/05/11 14:11:46;;;;;;;2.42;0.38;;;16.40;96.70;;;;;;5100967;27;20131;-76
2021/05/11 14:14:15;;;;;;;1.25;0.30;;;16.50;96.70;;;;;;5097957;27;20039;-76
2021/05/11 14:16:45;;;;;;;2.10;0.30;;;16.40;96.70;;;;;;5098815;28;20043;-76
2021/05/11 14:19:14;;;;;;;2.33;0.55;;;16.40;96.70;;;;;;5103057;27;20129;-76
2021/05/11 14:21:43;;;;;;;0.68;0.30;;;16.40;96.70;;;;;;5103370;27;20032;-76
2021/05/11 14:24:11;;;;;;;1.70;0.50;;;16.40;96.70;;;;;;5096750;28;20059;-76
2021/05/11 14:26:41;;;;;;;1.88;0.40;;;16.40;96.70;;;;;;5097213;28;20044;-76
2021/05/11 14:29:09;;;;;;;0.98;0.28;;;16.40;96.70;;;;;;5081255;28;20130;-75
2021/05/11 14:31:37;;;;;;;1.55;0.40;;;16.50;96.70;;;;;;5095691;28;20051;-76
2021/05/11 14:34:06;;;;;;;0.93;0.20;;;16.50;96.70;;;;;;5100434;28;20113;-76
2021/05/11 14:36:34;;;;;;;1.88;0.47;;;16.50;96.70;;;;;;5098568;27;20046;-76
2021/05/11 14:39:04;;;;;;;0.82;0.30;;;16.50;96.70;;;;;;5083417;28;20127;-76
2021/05/11 14:41:32;;;;;;;1.70;0.20;;;16.50;96.70;;;;;;5097315;27;20035;-76
2021/05/11 14:44:01;;;;;;;2.17;0.40;;;16.60;96.70;;;;;;5097186;28;20513;-76
2021/05/11 14:46:30;;;;;;;1.33;0.30;;;16.60;96.70;;;;;;5098444;27;20055;-76
2021/05/11 14:48:58;;;;;;;0.50;0.25;;;16.60;96.70;;;;;;5095975;28;20625;-76
2021/05/11 14:51:27;;;;;;;1.75;0.28;;;16.70;96.70;;;;;;5096470;27;20047;-76
2021/05/11 14:53:54;;;;;;;3.33;0.30;;;16.60;96.70;;;;;;5098552;28;20044;-77
2021/05/11 14:56:24;;;;;;;0.52;0.20;;;16.60;96.70;;;;;;5080249;28;20458;-76
2021/05/11 14:58:52;;;;;;;0.75;0.20;;;16.70;96.70;;;;;;5100533;27;20036;-76
2021/05/11 15:01:21;;;;;;;1.98;0.40;;;16.80;96.70;;;;;;5101300;27;20040;-76
2021/05/11 15:03:50;;;;;;;2.03;0.50;;;17.00;96.70;;;;;;5103435;27;20570;-76
2021/05/11 15:06:20;;;;;;;1.70;0.55;;;17.00;96.70;;;;;;5098346;28;20044;-76
2021/05/11 15:08:48;;;;;;;1.95;0.60;;;17.10;96.70;;;;;;5097575;28;20127;-75
2021/05/11 15:11:16;;;;;;;1.98;0.50;;;17.10;96.70;;;;;;5097903;28;20093;-75
2021/05/11 15:13:45;;;;;;;1.67;0.65;;;17.20;96.70;;;;;;5100427;28;20100;-76
2021/05/11 15:16:20;;;;;;;1.10;0.60;;;17.30;96.70;;;;;;5080502;28;20059;-76
2021/05/11 15:18:50;;;;;;;0.82;0.32;;;17.30;96.70;;;;;;5076925;28;20072;-76
2021/05/11 15:21:19;;;;;;;4.90;0.40;;;17.50;96.70;;;;;;5098223;28;20040;-76
2021/05/11 15:23:48;;;;;;;1.85;0.50;;;17.60;96.70;;;;;;5104260;27;20043;-76
2021/05/11 15:26:17;;;;;;;1.23;0.40;;;17.70;96.70;;;;;;5098931;28;20039;-76
2021/05/11 15:28:46;;;;;;;1.77;0.60;;;17.80;96.70;;;;;;5099101;28;20051;-76
2021/05/11 15:31:14;;;;;;;1.58;0.47;;;17.80;96.70;;;;;;5093557;28;20036;-75
2021/05/11 15:33:42;;;;;;;2.17;0.52;;;17.90;96.70;;;;;;5102688;28;20068;-76
2021/05/11 15:36:11;;;;;;;3.30;0.68;;;17.80;96.70;;;;;;5102716;28;20078;-76
2021/05/11 15:38:41;;;;;;;1.00;0.35;;;17.70;96.70;;;;;;5098329;28;20504;-76
2021/05/11 15:41:10;;;;;;;0.90;0.28;;;17.40;96.70;;;;;;5102563;28;20039;-76
2021/05/11 15:43:39;;;;;;;1.95;0.98;;;17.30;96.70;;;;;;5100574;27;20043;-76
2021/05/11 15:46:07;;;;;;;1.95;0.50;;;17.30;96.70;;;;;;5088012;28;20040;-76
2021/05/11 15:48:36;;;;;;;0.70;0.28;;;17.30;96.70;;;;;;5103309;27;20089;-76
2021/05/11 15:51:04;;;;;;;3.08;0.43;;;17.40;96.70;;;;;;5104166;28;20519;-76
2021/05/11 15:53:33;;;;;;;0.88;0.20;;;17.40;96.70;;;;;;5100516;28;20465;-76
2021/05/11 15:56:01;;;;;;;1.55;0.20;;;17.50;96.70;;;;;;5103314;27;20059;-75
2021/05/11 15:58:29;;;;;;;0.50;0.28;;;17.50;96.70;;;;;;5100420;28;20040;-76
2021/05/11 16:00:57;;;;;;;0.30;0.10;;;17.60;96.70;;;;;;5104142;27;20404;-76
2021/05/11 16:03:26;;;;;;;0.30;0.17;;;17.70;96.70;;;;;;5099938;27;20386;-76
2021/05/11 16:05:54;;;;;;;0.40;0.20;;;17.60;96.70;;;;;;5101790;28;20040;-76
2021/05/11 16:08:25;;;;;;;1.15;0.30;;;17.60;96.70;;;;;;5102251;27;20118;-76
2021/05/11 16:10:55;;;;;;;1.05;0.20;;;17.60;96.70;;;;;;5104135;27;20221;-76
2021/05/11 16:13:25;;;;;;;1.33;0.20;;;17.40;96.70;;;;;;5100827;27;20048;-76
2021/05/11 16:15:53;;;;;;;0.60;0.20;;;17.30;96.70;;;;;;5103317;28;20048;-76
2021/05/11 16:18:21;;;;;;;1.15;0.30;;;17.40;96.70;;;;;;5084786;28;20305;-76
2021/05/11 16:20:49;;;;;;;1.85;0.25;;;17.30;96.70;;;;;;5083177;28;20039;-76
2021/05/11 16:23:17;;;;;;;0.57;0.30;;;17.10;96.70;;;;;;5101238;27;20266;-76
2021/05/11 16:25:46;;;;;;;0.20;0.10;;;17.10;96.70;;;;;;5104078;27;20036;-76
2021/05/11 16:28:15;;;;;;;1.60;0.20;;;17.00;96.70;;;;;;5102634;27;20519;-76
2021/05/11 16:30:43;;;;;;;0.43;0.25;;;17.10;96.70;;;;;;5101157;27;20047;-76
2021/05/11 16:33:12;;;;;;;1.60;0.40;;;17.10;96.70;;;;;;5101409;28;20039;-76
2021/05/11 16:35:42;;;;;;;1.33;0.20;;;17.00;96.70;;;;;;5098600;28;20036;-76
2021/05/11 16:38:11;;;;;;;0.90;0.20;;;17.00;96.70;;;;;;5099758;27;20039;-76
2021/05/11 16:40:40;;;;;;;1.23;0.45;;;16.90;96.70;;;;;;5100558;28;20420;-76
2021/05/11 16:43:08;;;;;;;0.93;0.20;;;16.90;96.70;;;;;;5105720;27;20485;-76
2021/05/11 16:45:38;;;;;;;0.95;0.30;;;17.00;96.70;;;;;;5099674;27;20036;-76
2021/05/11 16:48:07;;;;;;;0.60;0.40;;;17.00;96.70;;;;;;5103036;27;20120;-76
2021/05/11 16:50:35;;;;;;;1.42;0.32;;;17.00;96.70;;;;;;5099868;27;20036;-77
2021/05/11 16:53:05;;;;;;;1.77;0.45;;;17.10;96.70;;;;;;5086562;28;20069;-76
2021/05/11 16:55:34;;;;;;;1.48;0.50;;;17.10;96.70;;;;;;5099865;27;20039;-76
2021/05/11 16:58:02;;;;;;;2.72;0.82;;;17.20;96.70;;;;;;5100767;28;20038;-76
2021/05/11 17:00:31;;;;;;;2.38;0.55;;;17.20;96.70;;;;;;5103499;27;20031;-76
2021/05/11 17:03:02;;;;;;;2.25;0.52;;;17.20;96.70;;;;;;5084870;27;20040;-76
2021/05/11 17:05:31;;;;;;;1.85;0.57;;;17.30;96.70;;;;;;5099876;28;20067;-76
2021/05/11 17:08:00;;;;;;;1.17;0.52;;;17.40;96.70;;;;;;5104566;27;20040;-77
2021/05/11 17:10:31;;;;;;;0.55;0.40;;;17.50;96.70;;;;;;5096618;28;20692;-77
2021/05/11 17:13:02;;;;;;;1.88;0.68;;;17.60;96.70;;;;;;5099652;27;20127;-76
2021/05/11 17:15:31;;;;;;;3.00;2.03;;;17.50;96.70;;;;;;5100059;27;20036;-76
2021/05/11 17:18:00;;;;;;;3.38;1.92;;;17.40;96.70;;;;;;5114364;27;20072;-76
2021/05/11 17:20:30;;;;;;;4.93;2.15;;;17.30;96.70;;;;;;5104185;27;20054;-76
2021/05/11 17:22:59;;;;;;;2.75;1.73;;;17.30;96.70;;;;;;5099938;27;20043;-76
2021/05/11 17:25:28;;;;;;;10.18;5.75;;;17.20;96.70;;;;;;5082885;28;20785;-76
2021/05/11 17:27:59;;;;;;;3.55;1.20;;;17.10;96.70;;;;;;5104684;27;20147;-76
2021/05/11 17:30:27;;;;;;;2.83;1.70;;;17.10;96.70;;;;;;5099802;28;20529;-77